sensor_id;sensor_type;location;lat;lon;timestamp;temperature;humidity
16074;DHT22;8141;52.664;5.074;2023-07-08T00:00:21;22.70;62.10
16074;DHT22;8141;52.664;5.074;2023-07-08T00:02:48;22.60;62.00
16074;DHT22;8141;52.664;5.074;2023-07-08T00:05:16;22.60;61.90
16074;DHT22;8141;52.664;5.074;2023-07-08T00:07:44;22.60;62.00
16074;DHT22;8141;52.664;5.074;2023-07-08T00:10:21;22.60;62.10
16074;DHT22;8141;52.664;5.074;2023-07-08T00:12:50;22.60;61.70
16074;DHT22;8141;52.664;5.074;2023-07-08T00:15:18;22.70;61.50
16074;DHT22;8141;52.664;5.074;2023-07-08T00:17:51;22.70;61.30
16074;DHT22;8141;52.664;5.074;2023-07-08T00:20:37;22.70;60.70
16074;DHT22;8141;52.664;5.074;2023-07-08T00:23:11;22.80;60.30
16074;DHT22;8141;52.664;5.074;2023-07-08T00:25:37;22.80;60.20
16074;DHT22;8141;52.664;5.074;2023-07-08T00:28:12;22.90;60.00
16074;DHT22;8141;52.664;5.074;2023-07-08T00:30:39;22.90;60.00
16074;DHT22;8141;52.664;5.074;2023-07-08T00:33:06;22.90;59.90
16074;DHT22;8141;52.664;5.074;2023-07-08T00:35:37;22.90;59.70
16074;DHT22;8141;52.664;5.074;2023-07-08T00:38:14;22.90;59.70
16074;DHT22;8141;52.664;5.074;2023-07-08T00:43:56;23.00;59.70
16074;DHT22;8141;52.664;5.074;2023-07-08T00:46:31;23.00;59.60
16074;DHT22;8141;52.664;5.074;2023-07-08T00:51:54;23.00;59.50
16074;DHT22;8141;52.664;5.074;2023-07-08T00:54:21;23.00;59.40
16074;DHT22;8141;52.664;5.074;2023-07-08T00:56:59;23.00;59.30
16074;DHT22;8141;52.664;5.074;2023-07-08T00:59:31;23.00;59.30
16074;DHT22;8141;52.664;5.074;2023-07-08T01:02:02;23.00;59.30
16074;DHT22;8141;52.664;5.074;2023-07-08T01:04:37;23.00;59.10
16074;DHT22;8141;52.664;5.074;2023-07-08T01:07:25;23.00;59.20
16074;DHT22;8141;52.664;5.074;2023-07-08T01:09:57;23.00;59.20
16074;DHT22;8141;52.664;5.074;2023-07-08T01:12:30;23.00;59.10
16074;DHT22;8141;52.664;5.074;2023-07-08T01:15:01;23.00;59.20
16074;DHT22;8141;52.664;5.074;2023-07-08T01:17:28;23.10;59.20
16074;DHT22;8141;52.664;5.074;2023-07-08T01:20:02;23.10;59.30
16074;DHT22;8141;52.664;5.074;2023-07-08T01:22:35;23.10;59.20
16074;DHT22;8141;52.664;5.074;2023-07-08T01:25:02;23.00;59.10
16074;DHT22;8141;52.664;5.074;2023-07-08T01:27:31;23.10;59.10
16074;DHT22;8141;52.664;5.074;2023-07-08T01:30:01;23.10;59.50
16074;DHT22;8141;52.664;5.074;2023-07-08T01:32:29;23.10;59.20
16074;DHT22;8141;52.664;5.074;2023-07-08T01:34:59;23.10;59.30
16074;DHT22;8141;52.664;5.074;2023-07-08T01:37:42;23.10;59.10
16074;DHT22;8141;52.664;5.074;2023-07-08T01:42:44;23.00;59.10
16074;DHT22;8141;52.664;5.074;2023-07-08T01:45:12;23.10;59.00
16074;DHT22;8141;52.664;5.074;2023-07-08T01:47:41;23.00;59.10
16074;DHT22;8141;52.664;5.074;2023-07-08T01:50:08;23.10;59.10
16074;DHT22;8141;52.664;5.074;2023-07-08T01:52:35;23.00;58.90
16074;DHT22;8141;52.664;5.074;2023-07-08T01:55:03;23.10;59.00
16074;DHT22;8141;52.664;5.074;2023-07-08T01:57:29;23.10;58.90
16074;DHT22;8141;52.664;5.074;2023-07-08T01:59:55;23.10;59.00
16074;DHT22;8141;52.664;5.074;2023-07-08T02:02:20;23.10;58.90
16074;DHT22;8141;52.664;5.074;2023-07-08T02:04:49;23.10;58.90
16074;DHT22;8141;52.664;5.074;2023-07-08T02:07:15;23.10;58.80
16074;DHT22;8141;52.664;5.074;2023-07-08T02:09:41;23.00;58.90
16074;DHT22;8141;52.664;5.074;2023-07-08T02:12:07;23.00;58.80
16074;DHT22;8141;52.664;5.074;2023-07-08T02:14:33;23.10;58.80
16074;DHT22;8141;52.664;5.074;2023-07-08T02:16:58;23.10;58.70
16074;DHT22;8141;52.664;5.074;2023-07-08T02:19:24;23.10;58.70
16074;DHT22;8141;52.664;5.074;2023-07-08T02:21:50;23.10;58.60
16074;DHT22;8141;52.664;5.074;2023-07-08T02:24:17;23.00;58.50
16074;DHT22;8141;52.664;5.074;2023-07-08T02:26:43;23.00;58.40
16074;DHT22;8141;52.664;5.074;2023-07-08T02:29:09;23.00;58.40
16074;DHT22;8141;52.664;5.074;2023-07-08T02:31:34;23.00;58.30
16074;DHT22;8141;52.664;5.074;2023-07-08T02:34:00;23.00;58.30
16074;DHT22;8141;52.664;5.074;2023-07-08T02:36:27;23.00;58.30
16074;DHT22;8141;52.664;5.074;2023-07-08T02:38:53;23.00;58.20
16074;DHT22;8141;52.664;5.074;2023-07-08T02:41:19;23.00;58.20
16074;DHT22;8141;52.664;5.074;2023-07-08T02:43:45;23.00;58.20
16074;DHT22;8141;52.664;5.074;2023-07-08T02:46:11;23.00;58.20
16074;DHT22;8141;52.664;5.074;2023-07-08T02:48:36;23.10;58.30
16074;DHT22;8141;52.664;5.074;2023-07-08T02:51:03;23.00;58.20
16074;DHT22;8141;52.664;5.074;2023-07-08T02:53:30;23.00;58.30
16074;DHT22;8141;52.664;5.074;2023-07-08T02:55:56;23.00;58.20
16074;DHT22;8141;52.664;5.074;2023-07-08T02:58:23;23.00;58.20
16074;DHT22;8141;52.664;5.074;2023-07-08T03:00:53;23.00;58.20
16074;DHT22;8141;52.664;5.074;2023-07-08T03:03:19;23.00;58.30
16074;DHT22;8141;52.664;5.074;2023-07-08T03:05:56;23.00;58.30
16074;DHT22;8141;52.664;5.074;2023-07-08T03:08:26;23.00;58.20
16074;DHT22;8141;52.664;5.074;2023-07-08T03:10:58;23.00;58.20
16074;DHT22;8141;52.664;5.074;2023-07-08T03:13:26;23.00;58.20
16074;DHT22;8141;52.664;5.074;2023-07-08T03:15:52;23.00;58.20
16074;DHT22;8141;52.664;5.074;2023-07-08T03:18:20;23.00;58.30
16074;DHT22;8141;52.664;5.074;2023-07-08T03:20:48;23.00;58.30
16074;DHT22;8141;52.664;5.074;2023-07-08T03:23:14;23.00;58.20
16074;DHT22;8141;52.664;5.074;2023-07-08T03:25:40;23.00;58.20
16074;DHT22;8141;52.664;5.074;2023-07-08T03:28:06;23.00;58.20
16074;DHT22;8141;52.664;5.074;2023-07-08T03:30:33;23.00;58.20
16074;DHT22;8141;52.664;5.074;2023-07-08T03:32:59;23.00;58.20
16074;DHT22;8141;52.664;5.074;2023-07-08T03:35:26;22.90;58.10
16074;DHT22;8141;52.664;5.074;2023-07-08T03:37:52;23.00;58.20
16074;DHT22;8141;52.664;5.074;2023-07-08T03:40:18;23.00;58.20
16074;DHT22;8141;52.664;5.074;2023-07-08T03:42:44;22.90;58.20
16074;DHT22;8141;52.664;5.074;2023-07-08T03:45:10;23.00;58.20
16074;DHT22;8141;52.664;5.074;2023-07-08T03:47:36;22.90;58.10
16074;DHT22;8141;52.664;5.074;2023-07-08T03:50:02;23.00;58.20
16074;DHT22;8141;52.664;5.074;2023-07-08T03:52:28;22.90;58.20
16074;DHT22;8141;52.664;5.074;2023-07-08T03:54:53;22.90;58.20
16074;DHT22;8141;52.664;5.074;2023-07-08T03:57:19;22.90;58.20
16074;DHT22;8141;52.664;5.074;2023-07-08T03:59:45;22.90;58.20
16074;DHT22;8141;52.664;5.074;2023-07-08T04:02:11;22.90;58.20
16074;DHT22;8141;52.664;5.074;2023-07-08T04:04:37;23.00;58.20
16074;DHT22;8141;52.664;5.074;2023-07-08T04:07:05;22.90;58.20
16074;DHT22;8141;52.664;5.074;2023-07-08T04:09:30;22.90;58.20
16074;DHT22;8141;52.664;5.074;2023-07-08T04:11:56;22.90;58.20
16074;DHT22;8141;52.664;5.074;2023-07-08T04:14:23;23.00;58.20
16074;DHT22;8141;52.664;5.074;2023-07-08T04:16:58;22.90;58.10
16074;DHT22;8141;52.664;5.074;2023-07-08T04:19:25;23.00;58.20
16074;DHT22;8141;52.664;5.074;2023-07-08T04:21:52;22.90;58.10
16074;DHT22;8141;52.664;5.074;2023-07-08T04:24:18;22.90;58.20
16074;DHT22;8141;52.664;5.074;2023-07-08T04:26:46;22.90;58.70
16074;DHT22;8141;52.664;5.074;2023-07-08T04:29:16;22.90;58.10
16074;DHT22;8141;52.664;5.074;2023-07-08T04:31:42;22.90;58.20
16074;DHT22;8141;52.664;5.074;2023-07-08T04:34:09;22.90;58.10
16074;DHT22;8141;52.664;5.074;2023-07-08T04:36:36;22.90;58.20
16074;DHT22;8141;52.664;5.074;2023-07-08T04:39:03;22.90;58.20
16074;DHT22;8141;52.664;5.074;2023-07-08T04:41:30;22.90;58.20
16074;DHT22;8141;52.664;5.074;2023-07-08T04:43:57;22.90;58.20
16074;DHT22;8141;52.664;5.074;2023-07-08T04:49:08;22.90;58.10
16074;DHT22;8141;52.664;5.074;2023-07-08T04:51:35;22.90;58.10
16074;DHT22;8141;52.664;5.074;2023-07-08T04:54:02;22.90;58.20
16074;DHT22;8141;52.664;5.074;2023-07-08T04:56:54;23.00;58.20
16074;DHT22;8141;52.664;5.074;2023-07-08T04:59:23;23.00;58.20
16074;DHT22;8141;52.664;5.074;2023-07-08T05:01:50;23.00;58.80
16074;DHT22;8141;52.664;5.074;2023-07-08T05:04:19;23.00;58.20
16074;DHT22;8141;52.664;5.074;2023-07-08T05:06:47;23.00;58.20
16074;DHT22;8141;52.664;5.074;2023-07-08T05:09:13;23.00;58.10
16074;DHT22;8141;52.664;5.074;2023-07-08T05:11:39;23.00;58.20
16074;DHT22;8141;52.664;5.074;2023-07-08T05:14:04;23.00;58.10
16074;DHT22;8141;52.664;5.074;2023-07-08T05:16:34;23.10;58.10
16074;DHT22;8141;52.664;5.074;2023-07-08T05:19:01;23.00;58.10
16074;DHT22;8141;52.664;5.074;2023-07-08T05:21:29;23.10;58.20
16074;DHT22;8141;52.664;5.074;2023-07-08T05:23:59;23.10;58.10
16074;DHT22;8141;52.664;5.074;2023-07-08T05:26:25;23.10;58.00
16074;DHT22;8141;52.664;5.074;2023-07-08T05:28:51;23.10;58.20
16074;DHT22;8141;52.664;5.074;2023-07-08T05:31:17;23.10;58.10
16074;DHT22;8141;52.664;5.074;2023-07-08T05:33:42;23.20;58.10
16074;DHT22;8141;52.664;5.074;2023-07-08T05:36:08;23.20;58.20
16074;DHT22;8141;52.664;5.074;2023-07-08T05:38:34;23.20;58.10
16074;DHT22;8141;52.664;5.074;2023-07-08T05:41:00;23.20;58.70
16074;DHT22;8141;52.664;5.074;2023-07-08T05:43:26;23.20;58.10
16074;DHT22;8141;52.664;5.074;2023-07-08T05:45:52;23.20;58.10
16074;DHT22;8141;52.664;5.074;2023-07-08T05:48:23;23.20;58.10
16074;DHT22;8141;52.664;5.074;2023-07-08T05:50:48;23.30;58.10
16074;DHT22;8141;52.664;5.074;2023-07-08T05:53:14;23.30;58.00
16074;DHT22;8141;52.664;5.074;2023-07-08T05:55:40;23.30;58.10
16074;DHT22;8141;52.664;5.074;2023-07-08T05:58:07;23.30;58.10
16074;DHT22;8141;52.664;5.074;2023-07-08T06:00:34;23.30;58.10
16074;DHT22;8141;52.664;5.074;2023-07-08T06:03:00;23.30;58.00
16074;DHT22;8141;52.664;5.074;2023-07-08T06:05:25;23.30;58.00
16074;DHT22;8141;52.664;5.074;2023-07-08T06:07:51;23.40;58.10
16074;DHT22;8141;52.664;5.074;2023-07-08T06:10:17;23.40;58.00
16074;DHT22;8141;52.664;5.074;2023-07-08T06:12:42;23.40;58.10
16074;DHT22;8141;52.664;5.074;2023-07-08T06:15:08;23.40;58.00
16074;DHT22;8141;52.664;5.074;2023-07-08T06:17:35;23.40;58.00
16074;DHT22;8141;52.664;5.074;2023-07-08T06:20:00;23.40;57.90
16074;DHT22;8141;52.664;5.074;2023-07-08T06:22:27;23.40;57.90
16074;DHT22;8141;52.664;5.074;2023-07-08T06:24:53;23.40;57.90
16074;DHT22;8141;52.664;5.074;2023-07-08T06:27:18;23.50;58.00
16074;DHT22;8141;52.664;5.074;2023-07-08T06:29:45;23.50;58.00
16074;DHT22;8141;52.664;5.074;2023-07-08T06:32:10;23.50;57.90
16074;DHT22;8141;52.664;5.074;2023-07-08T06:34:36;23.50;57.90
16074;DHT22;8141;52.664;5.074;2023-07-08T06:37:02;23.50;57.90
16074;DHT22;8141;52.664;5.074;2023-07-08T06:39:28;23.50;57.90
16074;DHT22;8141;52.664;5.074;2023-07-08T06:41:53;23.50;57.90
16074;DHT22;8141;52.664;5.074;2023-07-08T06:44:19;23.50;57.90
16074;DHT22;8141;52.664;5.074;2023-07-08T06:46:45;23.50;57.90
16074;DHT22;8141;52.664;5.074;2023-07-08T06:49:11;23.50;57.80
16074;DHT22;8141;52.664;5.074;2023-07-08T06:51:37;23.60;57.90
16074;DHT22;8141;52.664;5.074;2023-07-08T06:54:03;23.60;57.90
16074;DHT22;8141;52.664;5.074;2023-07-08T06:56:37;23.60;57.90
16074;DHT22;8141;52.664;5.074;2023-07-08T06:59:07;23.60;57.80
16074;DHT22;8141;52.664;5.074;2023-07-08T07:01:34;23.70;57.90
16074;DHT22;8141;52.664;5.074;2023-07-08T07:04:00;23.60;57.80
16074;DHT22;8141;52.664;5.074;2023-07-08T07:06:26;23.60;57.80
16074;DHT22;8141;52.664;5.074;2023-07-08T07:08:52;23.60;57.60
16074;DHT22;8141;52.664;5.074;2023-07-08T07:11:18;23.60;57.60
16074;DHT22;8141;52.664;5.074;2023-07-08T07:13:45;23.70;57.60
16074;DHT22;8141;52.664;5.074;2023-07-08T07:16:11;23.70;57.50
16074;DHT22;8141;52.664;5.074;2023-07-08T07:18:37;23.80;57.60
16074;DHT22;8141;52.664;5.074;2023-07-08T07:21:03;23.80;57.50
16074;DHT22;8141;52.664;5.074;2023-07-08T07:23:28;23.80;57.50
16074;DHT22;8141;52.664;5.074;2023-07-08T07:25:54;23.80;57.50
16074;DHT22;8141;52.664;5.074;2023-07-08T07:28:20;23.80;57.40
16074;DHT22;8141;52.664;5.074;2023-07-08T07:30:46;23.80;57.40
16074;DHT22;8141;52.664;5.074;2023-07-08T07:33:13;23.80;57.50
16074;DHT22;8141;52.664;5.074;2023-07-08T07:35:43;23.80;57.50
16074;DHT22;8141;52.664;5.074;2023-07-08T07:38:10;23.80;57.50
16074;DHT22;8141;52.664;5.074;2023-07-08T07:40:36;23.80;57.50
16074;DHT22;8141;52.664;5.074;2023-07-08T07:43:02;23.90;57.60
16074;DHT22;8141;52.664;5.074;2023-07-08T07:45:28;23.90;57.60
16074;DHT22;8141;52.664;5.074;2023-07-08T07:47:53;23.90;57.50
16074;DHT22;8141;52.664;5.074;2023-07-08T07:50:19;23.90;57.50
16074;DHT22;8141;52.664;5.074;2023-07-08T07:52:45;24.00;57.60
16074;DHT22;8141;52.664;5.074;2023-07-08T07:55:10;24.00;57.50
16074;DHT22;8141;52.664;5.074;2023-07-08T07:57:36;23.90;57.50
16074;DHT22;8141;52.664;5.074;2023-07-08T08:00:02;24.00;57.50
16074;DHT22;8141;52.664;5.074;2023-07-08T08:02:28;24.00;57.50
16074;DHT22;8141;52.664;5.074;2023-07-08T08:04:54;24.00;57.30
16074;DHT22;8141;52.664;5.074;2023-07-08T08:07:20;24.00;57.30
16074;DHT22;8141;52.664;5.074;2023-07-08T08:09:46;24.10;57.40
16074;DHT22;8141;52.664;5.074;2023-07-08T08:12:12;24.10;57.30
16074;DHT22;8141;52.664;5.074;2023-07-08T08:14:38;24.10;57.30
16074;DHT22;8141;52.664;5.074;2023-07-08T08:17:04;24.10;57.20
16074;DHT22;8141;52.664;5.074;2023-07-08T08:19:31;24.10;57.30
16074;DHT22;8141;52.664;5.074;2023-07-08T08:21:57;24.10;57.30
16074;DHT22;8141;52.664;5.074;2023-07-08T08:24:23;24.20;57.30
16074;DHT22;8141;52.664;5.074;2023-07-08T08:26:49;24.20;57.20
16074;DHT22;8141;52.664;5.074;2023-07-08T08:29:14;24.20;57.20
16074;DHT22;8141;52.664;5.074;2023-07-08T08:31:40;24.20;57.30
16074;DHT22;8141;52.664;5.074;2023-07-08T08:34:06;24.20;57.20
16074;DHT22;8141;52.664;5.074;2023-07-08T08:36:31;24.20;57.20
16074;DHT22;8141;52.664;5.074;2023-07-08T08:38:57;24.20;57.20
16074;DHT22;8141;52.664;5.074;2023-07-08T08:41:34;24.20;57.20
16074;DHT22;8141;52.664;5.074;2023-07-08T08:44:04;24.20;57.10
16074;DHT22;8141;52.664;5.074;2023-07-08T08:46:52;24.30;57.20
16074;DHT22;8141;52.664;5.074;2023-07-08T08:49:51;24.30;57.20
16074;DHT22;8141;52.664;5.074;2023-07-08T08:52:20;24.30;57.20
16074;DHT22;8141;52.664;5.074;2023-07-08T08:54:46;24.30;57.10
16074;DHT22;8141;52.664;5.074;2023-07-08T08:57:37;24.30;57.20
16074;DHT22;8141;52.664;5.074;2023-07-08T09:00:25;24.30;57.30
16074;DHT22;8141;52.664;5.074;2023-07-08T09:03:03;24.30;57.10
16074;DHT22;8141;52.664;5.074;2023-07-08T09:05:33;24.40;57.20
16074;DHT22;8141;52.664;5.074;2023-07-08T09:08:00;24.30;57.20
16074;DHT22;8141;52.664;5.074;2023-07-08T09:13:42;24.40;57.10
16074;DHT22;8141;52.664;5.074;2023-07-08T09:16:39;24.40;57.20
16074;DHT22;8141;52.664;5.074;2023-07-08T09:19:18;24.40;57.20
16074;DHT22;8141;52.664;5.074;2023-07-08T09:21:57;24.50;57.10
16074;DHT22;8141;52.664;5.074;2023-07-08T09:24:40;24.50;57.10
16074;DHT22;8141;52.664;5.074;2023-07-08T09:27:08;24.50;57.00
16074;DHT22;8141;52.664;5.074;2023-07-08T09:29:34;24.50;57.00
16074;DHT22;8141;52.664;5.074;2023-07-08T09:37:33;24.60;57.00
16074;DHT22;8141;52.664;5.074;2023-07-08T09:40:04;24.60;57.00
16074;DHT22;8141;52.664;5.074;2023-07-08T09:42:43;24.60;57.10
16074;DHT22;8141;52.664;5.074;2023-07-08T09:45:16;24.60;57.50
16074;DHT22;8141;52.664;5.074;2023-07-08T09:47:52;24.60;56.90
16074;DHT22;8141;52.664;5.074;2023-07-08T09:50:28;24.70;57.00
16074;DHT22;8141;52.664;5.074;2023-07-08T09:52:57;24.60;56.90
16074;DHT22;8141;52.664;5.074;2023-07-08T09:55:25;24.70;56.90
16074;DHT22;8141;52.664;5.074;2023-07-08T09:57:53;24.70;56.80
16074;DHT22;8141;52.664;5.074;2023-07-08T10:00:28;24.70;56.80
16074;DHT22;8141;52.664;5.074;2023-07-08T10:03:03;24.80;56.90
16074;DHT22;8141;52.664;5.074;2023-07-08T10:05:37;24.80;56.80
16074;DHT22;8141;52.664;5.074;2023-07-08T10:08:22;24.80;56.80
16074;DHT22;8141;52.664;5.074;2023-07-08T10:11:01;24.80;56.90
16074;DHT22;8141;52.664;5.074;2023-07-08T10:13:50;24.80;56.80
16074;DHT22;8141;52.664;5.074;2023-07-08T10:16:25;24.80;56.80
16074;DHT22;8141;52.664;5.074;2023-07-08T10:18:54;24.80;56.80
16074;DHT22;8141;52.664;5.074;2023-07-08T10:21:51;24.80;56.70
16074;DHT22;8141;52.664;5.074;2023-07-08T10:27:40;24.80;56.60
16074;DHT22;8141;52.664;5.074;2023-07-08T10:30:30;24.80;56.60
16074;DHT22;8141;52.664;5.074;2023-07-08T10:37:03;24.80;56.60
16074;DHT22;8141;52.664;5.074;2023-07-08T10:39:23;24.80;56.60
16074;DHT22;8141;52.664;5.074;2023-07-08T10:45:30;24.80;56.50
16074;DHT22;8141;52.664;5.074;2023-07-08T10:48:29;24.90;56.70
16074;DHT22;8141;52.664;5.074;2023-07-08T10:51:07;24.90;57.00
16074;DHT22;8141;52.664;5.074;2023-07-08T10:56:59;25.00;57.40
16074;DHT22;8141;52.664;5.074;2023-07-08T10:59:45;25.00;57.50
16074;DHT22;8141;52.664;5.074;2023-07-08T11:14:13;25.00;57.20
16074;DHT22;8141;52.664;5.074;2023-07-08T11:17:23;25.00;57.40
16074;DHT22;8141;52.664;5.074;2023-07-08T11:19:59;25.00;57.60
16074;DHT22;8141;52.664;5.074;2023-07-08T11:23:05;25.10;58.20
16074;DHT22;8141;52.664;5.074;2023-07-08T11:25:41;25.10;58.30
16074;DHT22;8141;52.664;5.074;2023-07-08T11:28:12;25.10;59.10
16074;DHT22;8141;52.664;5.074;2023-07-08T11:30:41;25.10;59.10
16074;DHT22;8141;52.664;5.074;2023-07-08T11:33:11;25.10;58.70
16074;DHT22;8141;52.664;5.074;2023-07-08T11:35:47;25.10;58.70
16074;DHT22;8141;52.664;5.074;2023-07-08T11:38:20;25.20;58.80
16074;DHT22;8141;52.664;5.074;2023-07-08T11:41:13;25.10;58.40
16074;DHT22;8141;52.664;5.074;2023-07-08T11:43:57;25.20;58.80
16074;DHT22;8141;52.664;5.074;2023-07-08T11:46:30;25.10;58.40
16074;DHT22;8141;52.664;5.074;2023-07-08T11:49:05;25.20;58.80
16074;DHT22;8141;52.664;5.074;2023-07-08T11:51:35;25.20;58.70
16074;DHT22;8141;52.664;5.074;2023-07-08T11:56:57;25.20;58.70
16074;DHT22;8141;52.664;5.074;2023-07-08T11:59:36;25.20;58.70
16074;DHT22;8141;52.664;5.074;2023-07-08T12:02:15;25.30;59.00
16074;DHT22;8141;52.664;5.074;2023-07-08T12:05:02;25.30;59.20
16074;DHT22;8141;52.664;5.074;2023-07-08T12:07:52;25.30;59.20
16074;DHT22;8141;52.664;5.074;2023-07-08T12:10:27;25.30;59.20
16074;DHT22;8141;52.664;5.074;2023-07-08T12:12:56;25.30;59.00
16074;DHT22;8141;52.664;5.074;2023-07-08T12:15:27;25.30;59.00
16074;DHT22;8141;52.664;5.074;2023-07-08T12:18:04;25.30;59.20
16074;DHT22;8141;52.664;5.074;2023-07-08T12:20:38;25.30;59.10
16074;DHT22;8141;52.664;5.074;2023-07-08T12:23:18;25.30;59.00
16074;DHT22;8141;52.664;5.074;2023-07-08T12:25:46;25.30;59.10
16074;DHT22;8141;52.664;5.074;2023-07-08T12:28:12;25.30;59.10
16074;DHT22;8141;52.664;5.074;2023-07-08T12:30:38;25.30;58.90
16074;DHT22;8141;52.664;5.074;2023-07-08T12:33:11;25.30;58.90
16074;DHT22;8141;52.664;5.074;2023-07-08T12:35:42;25.30;59.00
16074;DHT22;8141;52.664;5.074;2023-07-08T12:40:53;25.40;58.70
16074;DHT22;8141;52.664;5.074;2023-07-08T12:43:19;25.40;58.90
16074;DHT22;8141;52.664;5.074;2023-07-08T12:45:45;25.40;58.70
16074;DHT22;8141;52.664;5.074;2023-07-08T12:48:10;25.40;58.80
16074;DHT22;8141;52.664;5.074;2023-07-08T12:50:36;25.40;58.70
16074;DHT22;8141;52.664;5.074;2023-07-08T12:53:05;25.40;58.70
16074;DHT22;8141;52.664;5.074;2023-07-08T12:55:39;25.40;58.50
16074;DHT22;8141;52.664;5.074;2023-07-08T12:58:07;25.40;58.50
16074;DHT22;8141;52.664;5.074;2023-07-08T13:00:39;25.50;58.60
16074;DHT22;8141;52.664;5.074;2023-07-08T13:03:14;25.40;58.50
16074;DHT22;8141;52.664;5.074;2023-07-08T13:05:43;25.50;58.40
16074;DHT22;8141;52.664;5.074;2023-07-08T13:08:17;25.40;58.30
16074;DHT22;8141;52.664;5.074;2023-07-08T13:10:44;25.50;58.30
16074;DHT22;8141;52.664;5.074;2023-07-08T13:13:20;25.50;58.30
16074;DHT22;8141;52.664;5.074;2023-07-08T13:15:48;25.50;58.40
16074;DHT22;8141;52.664;5.074;2023-07-08T13:18:19;25.50;58.30
16074;DHT22;8141;52.664;5.074;2023-07-08T13:21:08;25.50;58.20
16074;DHT22;8141;52.664;5.074;2023-07-08T13:23:36;25.50;58.20
16074;DHT22;8141;52.664;5.074;2023-07-08T13:26:21;25.50;58.20
16074;DHT22;8141;52.664;5.074;2023-07-08T13:28:49;25.50;58.20
16074;DHT22;8141;52.664;5.074;2023-07-08T13:31:21;25.50;58.10
16074;DHT22;8141;52.664;5.074;2023-07-08T13:33:53;25.50;58.10
16074;DHT22;8141;52.664;5.074;2023-07-08T13:36:24;25.60;58.20
16074;DHT22;8141;52.664;5.074;2023-07-08T13:38:56;25.50;58.00
16074;DHT22;8141;52.664;5.074;2023-07-08T13:41:23;25.50;58.00
16074;DHT22;8141;52.664;5.074;2023-07-08T13:43:49;25.50;57.90
16074;DHT22;8141;52.664;5.074;2023-07-08T13:46:45;25.50;57.90
16074;DHT22;8141;52.664;5.074;2023-07-08T13:49:25;25.60;57.80
16074;DHT22;8141;52.664;5.074;2023-07-08T13:52:06;25.60;57.90
16074;DHT22;8141;52.664;5.074;2023-07-08T13:54:42;25.60;57.80
16074;DHT22;8141;52.664;5.074;2023-07-08T13:57:13;25.60;57.70
16074;DHT22;8141;52.664;5.074;2023-07-08T13:59:41;25.60;57.70
16074;DHT22;8141;52.664;5.074;2023-07-08T14:02:36;25.60;57.70
16074;DHT22;8141;52.664;5.074;2023-07-08T14:05:08;25.60;57.60
16074;DHT22;8141;52.664;5.074;2023-07-08T14:07:35;25.60;57.60
16074;DHT22;8141;52.664;5.074;2023-07-08T14:10:22;25.60;57.50
16074;DHT22;8141;52.664;5.074;2023-07-08T14:12:48;25.60;57.40
16074;DHT22;8141;52.664;5.074;2023-07-08T14:15:13;25.60;57.50
16074;DHT22;8141;52.664;5.074;2023-07-08T14:17:39;25.60;57.40
16074;DHT22;8141;52.664;5.074;2023-07-08T14:20:13;25.60;57.40
16074;DHT22;8141;52.664;5.074;2023-07-08T14:22:41;25.70;57.40
16074;DHT22;8141;52.664;5.074;2023-07-08T14:25:09;25.70;57.40
16074;DHT22;8141;52.664;5.074;2023-07-08T14:27:35;25.70;57.40
16074;DHT22;8141;52.664;5.074;2023-07-08T14:30:01;25.70;57.40
16074;DHT22;8141;52.664;5.074;2023-07-08T14:32:29;25.70;57.40
16074;DHT22;8141;52.664;5.074;2023-07-08T14:34:59;25.70;57.30
16074;DHT22;8141;52.664;5.074;2023-07-08T14:37:29;25.70;57.20
16074;DHT22;8141;52.664;5.074;2023-07-08T14:39:54;25.70;57.20
16074;DHT22;8141;52.664;5.074;2023-07-08T14:42:20;25.70;57.20
16074;DHT22;8141;52.664;5.074;2023-07-08T14:44:50;25.80;57.20
16074;DHT22;8141;52.664;5.074;2023-07-08T14:47:19;25.80;57.20
16074;DHT22;8141;52.664;5.074;2023-07-08T14:49:45;25.70;57.00
16074;DHT22;8141;52.664;5.074;2023-07-08T14:52:11;25.70;57.10
16074;DHT22;8141;52.664;5.074;2023-07-08T14:54:37;25.80;57.10
16074;DHT22;8141;52.664;5.074;2023-07-08T14:57:04;25.80;57.00
16074;DHT22;8141;52.664;5.074;2023-07-08T14:59:34;25.80;57.00
16074;DHT22;8141;52.664;5.074;2023-07-08T15:02:07;25.80;57.00
16074;DHT22;8141;52.664;5.074;2023-07-08T15:04:47;25.80;56.90
16074;DHT22;8141;52.664;5.074;2023-07-08T15:07:13;25.80;57.00
16074;DHT22;8141;52.664;5.074;2023-07-08T15:09:39;25.80;56.90
16074;DHT22;8141;52.664;5.074;2023-07-08T15:12:07;25.80;56.90
16074;DHT22;8141;52.664;5.074;2023-07-08T15:14:35;25.80;56.90
16074;DHT22;8141;52.664;5.074;2023-07-08T15:17:00;25.80;56.90
16074;DHT22;8141;52.664;5.074;2023-07-08T15:19:26;25.90;56.90
16074;DHT22;8141;52.664;5.074;2023-07-08T15:21:53;25.90;56.90
16074;DHT22;8141;52.664;5.074;2023-07-08T15:24:19;25.90;56.90
16074;DHT22;8141;52.664;5.074;2023-07-08T15:26:48;25.90;56.90
16074;DHT22;8141;52.664;5.074;2023-07-08T15:29:16;25.90;56.90
16074;DHT22;8141;52.664;5.074;2023-07-08T15:31:44;25.90;56.80
16074;DHT22;8141;52.664;5.074;2023-07-08T15:34:18;25.90;56.80
16074;DHT22;8141;52.664;5.074;2023-07-08T15:36:48;25.90;56.80
16074;DHT22;8141;52.664;5.074;2023-07-08T15:39:14;25.90;56.80
16074;DHT22;8141;52.664;5.074;2023-07-08T15:41:41;25.90;56.80
16074;DHT22;8141;52.664;5.074;2023-07-08T15:44:12;25.90;56.70
16074;DHT22;8141;52.664;5.074;2023-07-08T15:46:46;25.90;56.70
16074;DHT22;8141;52.664;5.074;2023-07-08T15:49:19;25.90;56.80
16074;DHT22;8141;52.664;5.074;2023-07-08T15:51:46;25.90;57.00
16074;DHT22;8141;52.664;5.074;2023-07-08T15:54:12;25.90;57.00
16074;DHT22;8141;52.664;5.074;2023-07-08T15:56:39;25.90;56.80
16074;DHT22;8141;52.664;5.074;2023-07-08T15:59:14;25.90;56.90
16074;DHT22;8141;52.664;5.074;2023-07-08T16:01:42;25.90;56.90
16074;DHT22;8141;52.664;5.074;2023-07-08T16:04:28;25.90;56.90
16074;DHT22;8141;52.664;5.074;2023-07-08T16:06:57;25.90;56.70
16074;DHT22;8141;52.664;5.074;2023-07-08T16:09:23;25.90;56.70
16074;DHT22;8141;52.664;5.074;2023-07-08T16:11:49;26.00;57.40
16074;DHT22;8141;52.664;5.074;2023-07-08T16:14:16;26.00;56.90
16074;DHT22;8141;52.664;5.074;2023-07-08T16:16:43;25.90;56.70
16074;DHT22;8141;52.664;5.074;2023-07-08T16:19:10;25.90;56.80
16074;DHT22;8141;52.664;5.074;2023-07-08T16:21:37;26.00;56.90
16074;DHT22;8141;52.664;5.074;2023-07-08T16:24:03;25.90;56.70
16074;DHT22;8141;52.664;5.074;2023-07-08T16:26:29;26.00;56.80
16074;DHT22;8141;52.664;5.074;2023-07-08T16:28:55;25.90;56.70
16074;DHT22;8141;52.664;5.074;2023-07-08T16:31:24;25.90;56.70
16074;DHT22;8141;52.664;5.074;2023-07-08T16:33:52;26.00;56.80
16074;DHT22;8141;52.664;5.074;2023-07-08T16:36:22;26.00;56.80
16074;DHT22;8141;52.664;5.074;2023-07-08T16:38:50;26.00;56.70
16074;DHT22;8141;52.664;5.074;2023-07-08T16:41:30;26.00;56.80
16074;DHT22;8141;52.664;5.074;2023-07-08T16:44:15;26.00;56.70
16074;DHT22;8141;52.664;5.074;2023-07-08T16:46:42;26.00;56.70
16074;DHT22;8141;52.664;5.074;2023-07-08T16:49:08;26.00;56.80
16074;DHT22;8141;52.664;5.074;2023-07-08T16:51:35;26.00;56.70
16074;DHT22;8141;52.664;5.074;2023-07-08T16:54:15;26.00;56.80